createdAt,value
2018-08-09T00:02:16.263Z,21.50
2018-08-09T00:04:46.695Z,21.50
2018-08-09T00:07:16.368Z,21.40
2018-08-09T00:09:46.062Z,21.40
2018-08-09T00:12:15.758Z,21.40
2018-08-09T00:14:45.403Z,21.40
2018-08-09T00:17:15.138Z,21.40
2018-08-09T00:19:44.818Z,21.30
2018-08-09T00:22:14.487Z,21.30
2018-08-09T00:24:44.207Z,21.40
2018-08-09T00:27:13.888Z,21.30
2018-08-09T00:29:43.628Z,21.30
2018-08-09T00:32:13.311Z,21.40
2018-08-09T00:34:43.091Z,21.30
2018-08-09T00:37:12.727Z,21.30
2018-08-09T00:39:42.428Z,21.30
2018-08-09T00:42:12.089Z,21.30
2018-08-09T00:44:42.227Z,21.20
2018-08-09T00:47:12.012Z,21.20
2018-08-09T00:49:41.734Z,21.20
2018-08-09T00:52:11.387Z,21.20
2018-08-09T00:54:41.121Z,21.20
2018-08-09T00:57:10.777Z,21.20
2018-08-09T00:59:40.467Z,21.20
2018-08-09T01:02:10.140Z,21.20
2018-08-09T01:04:39.904Z,21.10
2018-08-09T01:07:09.566Z,21.10
2018-08-09T01:09:39.360Z,21.10
2018-08-09T01:12:09.380Z,21.00
2018-08-09T01:14:39.526Z,21.00
2018-08-09T01:17:09.374Z,21.00
2018-08-09T01:19:39.154Z,21.00
2018-08-09T01:22:08.832Z,21.00
2018-08-09T01:24:38.525Z,21.00
2018-08-09T01:27:09.677Z,20.90
2018-08-09T01:29:40.739Z,20.90
2018-08-09T01:32:10.371Z,20.80
2018-08-09T01:34:40.085Z,20.80
2018-08-09T01:37:09.796Z,20.80
2018-08-09T01:39:39.507Z,20.70
2018-08-09T01:42:20.510Z,20.70
2018-08-09T01:44:50.213Z,20.60
2018-08-09T01:47:19.915Z,20.60
2018-08-09T01:49:49.580Z,20.60
2018-08-09T01:52:19.236Z,20.60
2018-08-09T01:54:48.957Z,20.60
2018-08-09T01:57:18.628Z,20.60
2018-08-09T01:59:48.306Z,20.60
2018-08-09T02:02:18.328Z,20.40
2018-08-09T02:04:48.056Z,20.40
2018-08-09T02:07:17.838Z,20.40
2018-08-09T02:09:47.526Z,20.40
2018-08-09T02:12:17.195Z,20.40
2018-08-09T02:14:46.900Z,20.40
2018-08-09T02:17:16.553Z,20.40
2018-08-09T02:19:46.630Z,20.40
2018-08-09T02:22:16.449Z,20.40
2018-08-09T02:24:46.305Z,20.30
2018-08-09T02:27:16.041Z,20.30
2018-08-09T02:29:45.774Z,20.10
2018-08-09T02:32:15.495Z,20.20
2018-08-09T02:34:45.454Z,20.20
2018-08-09T02:37:15.158Z,20.20
2018-08-09T02:39:45.078Z,20.20
2018-08-09T02:42:14.852Z,20.10
2018-08-09T02:44:44.570Z,20.10
2018-08-09T02:47:14.925Z,20.10
2018-08-09T02:49:44.704Z,20.00
2018-08-09T02:52:14.424Z,19.90
2018-08-09T02:54:44.228Z,19.90
2018-08-09T02:57:14.372Z,19.90
2018-08-09T02:59:44.638Z,19.80
2018-08-09T03:02:15.133Z,19.90
2018-08-09T03:04:44.923Z,19.90
2018-08-09T03:07:14.625Z,19.90
2018-08-09T03:09:44.377Z,19.90
2018-08-09T03:12:14.138Z,19.90
2018-08-09T03:14:43.825Z,20.00
2018-08-09T03:17:13.532Z,20.00
2018-08-09T03:19:43.374Z,19.90
2018-08-09T03:22:13.087Z,20.00
2018-08-09T03:24:42.766Z,19.90
2018-08-09T03:27:12.833Z,20.00
2018-08-09T03:29:42.499Z,19.90
2018-08-09T03:32:12.198Z,19.90
2018-08-09T03:34:41.867Z,19.90
2018-08-09T03:37:11.572Z,19.90
2018-08-09T03:39:41.240Z,19.90
2018-08-09T03:42:10.971Z,19.90
2018-08-09T03:44:40.679Z,19.90
2018-08-09T03:47:10.430Z,19.80
2018-08-09T03:49:40.148Z,19.80
2018-08-09T03:52:09.899Z,19.80
2018-08-09T03:54:39.750Z,19.80
2018-08-09T03:57:09.435Z,19.80
2018-08-09T03:59:39.131Z,19.80
2018-08-09T04:02:08.827Z,19.80
2018-08-09T04:04:38.487Z,19.80
2018-08-09T04:07:08.216Z,19.80
2018-08-09T04:09:37.932Z,19.70
2018-08-09T04:12:07.723Z,19.80
2018-08-09T04:14:37.536Z,19.70
2018-08-09T04:17:12.434Z,19.80
2018-08-09T04:19:42.084Z,19.80
2018-08-09T04:22:11.742Z,19.80
2018-08-09T04:24:41.433Z,19.90
2018-08-09T04:27:11.186Z,19.90
2018-08-09T04:29:41.001Z,19.90
2018-08-09T04:32:10.764Z,20.00
2018-08-09T04:34:40.507Z,20.00
2018-08-09T04:37:10.178Z,20.00
2018-08-09T04:39:40.178Z,20.00
2018-08-09T04:42:09.945Z,20.00
2018-08-09T04:44:39.671Z,20.00
2018-08-09T04:47:15.014Z,20.00
2018-08-09T04:49:44.679Z,20.00
2018-08-09T04:52:14.359Z,20.00
2018-08-09T04:54:44.051Z,20.00
2018-08-09T04:57:13.802Z,20.00
2018-08-09T04:59:43.524Z,20.00
2018-08-09T05:02:13.246Z,20.10
2018-08-09T05:04:42.904Z,20.20
2018-08-09T05:07:12.579Z,20.20
2018-08-09T05:09:42.263Z,20.20
2018-08-09T05:12:11.971Z,20.40
2018-08-09T05:14:41.702Z,20.40
2018-08-09T05:17:11.433Z,20.50
2018-08-09T05:19:41.136Z,20.50
2018-08-09T05:22:10.843Z,20.50
2018-08-09T05:24:40.592Z,20.60
2018-08-09T05:27:10.326Z,20.60
2018-08-09T05:29:40.010Z,20.60
2018-08-09T05:32:09.747Z,20.70
2018-08-09T05:34:39.419Z,20.70
2018-08-09T05:37:09.110Z,20.80
2018-08-09T05:39:38.834Z,20.80
2018-08-09T05:42:08.563Z,20.90
2018-08-09T05:44:38.278Z,20.90
2018-08-09T05:47:11.982Z,20.90
2018-08-09T05:49:41.687Z,20.90
2018-08-09T05:52:11.590Z,21.00
2018-08-09T05:54:41.275Z,21.00
2018-08-09T05:57:10.999Z,21.00
2018-08-09T05:59:40.820Z,21.00
2018-08-09T06:02:10.518Z,21.20
2018-08-09T06:04:40.301Z,21.40
2018-08-09T06:07:09.995Z,21.70
2018-08-09T06:09:39.694Z,22.00
2018-08-09T06:12:09.355Z,22.20
2018-08-09T06:14:39.068Z,22.50
2018-08-09T06:17:08.815Z,22.70
2018-08-09T06:19:38.471Z,22.70
2018-08-09T06:22:08.490Z,22.80
2018-08-09T06:24:38.198Z,22.90
2018-08-09T06:27:07.959Z,23.00
2018-08-09T06:29:38.029Z,23.20
2018-08-09T06:32:08.439Z,23.40
2018-08-09T06:34:38.474Z,23.50
2018-08-09T06:37:08.792Z,23.60
2018-08-09T06:39:38.479Z,23.80
2018-08-09T06:42:08.807Z,24.10
2018-08-09T06:44:38.818Z,24.00
2018-08-09T06:47:08.539Z,24.10
2018-08-09T06:49:38.758Z,24.60
2018-08-09T06:52:08.763Z,24.90
2018-08-09T06:54:38.527Z,25.10
2018-08-09T06:57:08.304Z,25.40
2018-08-09T06:59:38.718Z,25.60
2018-08-09T07:02:08.872Z,25.80
2018-08-09T07:04:38.657Z,25.80
2018-08-09T07:07:08.480Z,25.80
2018-08-09T07:09:38.199Z,25.90
2018-08-09T07:12:07.983Z,26.10
2018-08-09T07:14:37.739Z,26.10
2018-08-09T07:17:07.818Z,26.30
2018-08-09T07:19:37.563Z,26.50
2018-08-09T07:22:07.367Z,26.70
2018-08-09T07:24:37.164Z,26.60
2018-08-09T07:27:06.834Z,26.50
2018-08-09T07:29:36.810Z,26.60
2018-08-09T07:32:06.630Z,26.60
2018-08-09T07:34:36.352Z,26.60
2018-08-09T07:37:06.075Z,26.60
2018-08-09T07:39:35.816Z,26.60
2018-08-09T07:42:06.054Z,26.60
2018-08-09T07:44:35.726Z,26.70
2018-08-09T07:47:05.382Z,26.60
2018-08-09T07:49:35.113Z,26.70
2018-08-09T07:52:05.155Z,26.90
2018-08-09T07:54:34.851Z,27.00
2018-08-09T07:57:04.596Z,27.10
2018-08-09T07:59:34.558Z,27.20
2018-08-09T08:02:04.610Z,27.30
2018-08-09T08:04:34.330Z,27.40
2018-08-09T08:07:03.857Z,27.40
2018-08-09T08:09:33.584Z,27.40
2018-08-09T08:12:03.300Z,27.50
2018-08-09T08:14:33.036Z,27.50
2018-08-09T08:17:02.459Z,27.50
2018-08-09T08:19:31.866Z,27.30
2018-08-09T08:22:01.607Z,27.20
2018-08-09T08:24:31.355Z,27.00
2018-08-09T08:27:01.136Z,27.00
2018-08-09T08:29:30.860Z,27.00
2018-08-09T08:32:00.232Z,27.10
2018-08-09T08:34:30.103Z,27.40
2018-08-09T08:36:59.699Z,27.50
2018-08-09T08:39:29.419Z,27.80
2018-08-09T08:41:58.876Z,27.80
2018-08-09T08:44:28.261Z,27.80
2018-08-09T08:46:57.712Z,27.80
2018-08-09T08:49:27.177Z,28.00
2018-08-09T08:51:56.586Z,28.10
2018-08-09T08:54:26.028Z,28.20
2018-08-09T08:56:55.428Z,28.20
2018-08-09T08:59:24.870Z,28.30
2018-08-09T09:01:54.241Z,28.50
2018-08-09T09:04:23.771Z,28.60
2018-08-09T09:06:53.650Z,28.80
2018-08-09T09:09:23.602Z,28.80
2018-08-09T09:11:53.408Z,28.80
2018-08-09T09:14:23.147Z,28.80
2018-08-09T09:16:52.875Z,28.90
2018-08-09T09:19:22.750Z,28.80
2018-08-09T09:21:52.570Z,28.90
2018-08-09T09:24:22.287Z,28.90
2018-08-09T09:26:52.033Z,28.80
2018-08-09T09:29:21.831Z,28.80
2018-08-09T09:31:51.230Z,28.90
2018-08-09T09:34:20.930Z,28.90
2018-08-09T09:36:51.034Z,29.00
2018-08-09T09:39:20.947Z,29.10
2018-08-09T09:41:50.734Z,29.10
2018-08-09T09:44:20.096Z,29.10
2018-08-09T09:46:49.927Z,29.10
2018-08-09T09:49:19.403Z,29.20
2018-08-09T09:51:48.832Z,29.20
2018-08-09T09:54:18.591Z,29.20
2018-08-09T09:56:48.014Z,29.30
2018-08-09T09:59:17.414Z,29.30
2018-08-09T10:01:46.854Z,29.40
2018-08-09T10:04:16.403Z,29.40
2018-08-09T10:06:46.190Z,29.40
2018-08-09T10:09:16.581Z,29.40
2018-08-09T10:11:46.011Z,29.50
2018-08-09T10:14:15.410Z,29.50
2018-08-09T10:16:44.782Z,29.50
2018-08-09T10:19:14.223Z,29.50
2018-08-09T10:21:43.948Z,29.40
2018-08-09T10:24:13.840Z,29.40
2018-08-09T10:26:43.614Z,29.50
2018-08-09T10:29:13.313Z,29.60
2018-08-09T10:31:42.882Z,29.60
2018-08-09T10:34:12.844Z,29.60
2018-08-09T10:36:42.746Z,29.60
2018-08-09T10:39:12.641Z,29.70
2018-08-09T10:41:42.067Z,29.70
2018-08-09T10:44:11.427Z,29.70
2018-08-09T10:46:41.226Z,29.70
2018-08-09T10:49:10.573Z,29.80
2018-08-09T10:51:39.963Z,29.70
2018-08-09T10:54:09.348Z,29.80
2018-08-09T10:56:38.786Z,29.80
2018-08-09T10:59:08.190Z,29.80
2018-08-09T11:01:37.643Z,29.90
2018-08-09T11:04:07.231Z,29.90
2018-08-09T11:06:36.663Z,30.00
2018-08-09T11:09:08.874Z,30.00
2018-08-09T11:11:38.241Z,29.90
2018-08-09T11:14:07.679Z,30.00
2018-08-09T11:16:37.090Z,30.10
2018-08-09T11:19:06.812Z,30.20
2018-08-09T11:21:36.230Z,30.20
2018-08-09T11:24:05.672Z,30.20
2018-08-09T11:26:35.060Z,30.30
2018-08-09T11:29:04.862Z,30.40
2018-08-09T11:31:34.265Z,30.50
2018-08-09T11:34:04.325Z,30.40
2018-08-09T11:36:33.886Z,30.40
2018-08-09T11:39:13.915Z,30.60
2018-08-09T11:41:44.414Z,30.60
2018-08-09T11:44:13.819Z,30.60
2018-08-09T11:46:43.180Z,30.60
2018-08-09T11:49:12.605Z,30.50
2018-08-09T11:51:41.970Z,30.50
2018-08-09T11:54:11.364Z,30.40
2018-08-09T11:56:40.809Z,30.40
2018-08-09T11:59:10.299Z,30.50
2018-08-09T12:01:39.913Z,30.50
2018-08-09T12:04:25.443Z,30.60
2018-08-09T12:06:56.995Z,30.60
2018-08-09T12:09:26.390Z,30.60
2018-08-09T12:11:56.298Z,30.60
2018-08-09T12:14:25.679Z,30.50
2018-08-09T12:16:55.028Z,30.50
2018-08-09T12:19:26.062Z,30.50
2018-08-09T12:22:04.401Z,30.50
2018-08-09T12:24:38.964Z,30.50
2018-08-09T12:27:09.316Z,30.60
2018-08-09T12:29:39.190Z,30.70
2018-08-09T12:32:08.649Z,30.80
2018-08-09T12:34:38.052Z,30.70
2018-08-09T12:37:07.543Z,30.70
2018-08-09T12:39:38.544Z,30.80
2018-08-09T12:42:08.057Z,30.70
2018-08-09T12:44:37.553Z,30.80
2018-08-09T12:47:07.366Z,30.80
2018-08-09T12:49:37.043Z,30.80
2018-08-09T12:52:07.163Z,30.90
2018-08-09T12:54:38.995Z,30.90
2018-08-09T12:57:08.604Z,31.00
2018-08-09T12:59:38.016Z,30.90
2018-08-09T13:02:07.708Z,30.80
2018-08-09T13:04:37.847Z,30.80
2018-08-09T13:07:07.859Z,30.90
2018-08-09T13:09:38.107Z,30.90
2018-08-09T13:12:07.548Z,31.00
2018-08-09T13:14:37.054Z,31.10
2018-08-09T13:17:09.197Z,31.10
2018-08-09T13:19:39.303Z,30.90
2018-08-09T13:22:09.042Z,31.00
2018-08-09T13:24:38.502Z,30.90
2018-08-09T13:27:08.370Z,31.00
2018-08-09T13:29:37.756Z,31.00
2018-08-09T13:32:07.136Z,31.00
2018-08-09T13:34:37.244Z,31.10
2018-08-09T13:37:06.783Z,31.20
2018-08-09T13:39:36.287Z,31.20
2018-08-09T13:42:05.722Z,31.10
2018-08-09T13:44:35.092Z,31.10
2018-08-09T13:47:04.872Z,31.20
2018-08-09T13:49:34.339Z,31.20
2018-08-09T13:52:03.784Z,31.20
2018-08-09T13:54:33.148Z,31.20
2018-08-09T13:57:02.540Z,31.20
2018-08-09T13:59:31.946Z,31.30
2018-08-09T14:02:01.336Z,31.40
2018-08-09T14:04:31.111Z,31.40
2018-08-09T14:07:00.514Z,31.40
2018-08-09T14:09:29.920Z,31.30
2018-08-09T14:11:59.319Z,31.40
2018-08-09T14:14:29.059Z,31.40
2018-08-09T14:16:58.524Z,31.40
2018-08-09T14:19:28.242Z,31.30
2018-08-09T14:21:57.579Z,31.20
2018-08-09T14:24:27.393Z,30.90
2018-08-09T14:26:57.254Z,30.20
2018-08-09T14:29:26.609Z,29.70
2018-08-09T14:31:56.652Z,29.40
2018-08-09T14:34:26.598Z,29.20
2018-08-09T14:36:56.030Z,28.90
2018-08-09T14:39:25.455Z,28.50
2018-08-09T14:41:55.025Z,28.20
2018-08-09T14:44:24.946Z,28.00
2018-08-09T14:46:54.358Z,27.90
2018-08-09T14:49:24.038Z,27.90
2018-08-09T14:51:53.456Z,27.80
2018-08-09T14:54:22.824Z,27.80
2018-08-09T14:56:52.482Z,27.70
2018-08-09T14:59:21.879Z,27.70
2018-08-09T15:01:51.922Z,27.60
2018-08-09T15:04:21.310Z,27.70
2018-08-09T15:06:50.699Z,27.70
2018-08-09T15:09:20.383Z,27.70
2018-08-09T15:11:50.452Z,27.70
2018-08-09T15:14:19.832Z,27.70
2018-08-09T15:16:49.522Z,27.70
2018-08-09T15:19:18.922Z,27.70
2018-08-09T15:21:48.684Z,27.80
2018-08-09T15:24:18.432Z,27.80
2018-08-09T15:26:48.151Z,27.80
2018-08-09T15:29:17.504Z,27.70
2018-08-09T15:31:46.911Z,27.60
2018-08-09T15:34:16.274Z,27.50
2018-08-09T15:36:46.307Z,27.50
2018-08-09T15:39:16.295Z,27.50
2018-08-09T15:41:45.958Z,27.40
2018-08-09T15:44:15.626Z,27.40
2018-08-09T15:46:45.038Z,27.40
2018-08-09T15:49:14.738Z,27.30
2018-08-09T15:51:44.766Z,27.20
2018-08-09T15:54:14.394Z,27.20
2018-08-09T15:56:44.124Z,27.20
2018-08-09T15:59:13.741Z,27.20
2018-08-09T16:01:43.433Z,27.20
2018-08-09T16:04:13.106Z,27.20
2018-08-09T16:06:42.795Z,27.10
2018-08-09T16:09:16.011Z,27.00
2018-08-09T16:11:45.822Z,26.90
2018-08-09T16:14:15.507Z,26.90
2018-08-09T16:16:45.184Z,26.80
2018-08-09T16:19:14.850Z,26.80
2018-08-09T16:21:45.175Z,26.80
2018-08-09T16:24:15.190Z,26.80
2018-08-09T16:26:45.199Z,26.90
2018-08-09T16:29:15.198Z,26.90
2018-08-09T16:31:44.927Z,26.80
2018-08-09T16:34:14.582Z,26.70
2018-08-09T16:36:44.327Z,26.70
2018-08-09T16:39:14.976Z,26.70
2018-08-09T16:41:44.707Z,26.70
2018-08-09T16:44:14.444Z,26.70
2018-08-09T16:46:44.180Z,26.80
2018-08-09T16:49:13.851Z,26.70
2018-08-09T16:51:44.951Z,26.80
2018-08-09T16:54:14.616Z,26.80
2018-08-09T16:56:44.307Z,26.80
2018-08-09T16:59:14.016Z,26.70
2018-08-09T17:01:43.762Z,26.70
2018-08-09T17:04:13.463Z,26.50
2018-08-09T17:06:43.186Z,26.50
2018-08-09T17:09:14.474Z,26.50
2018-08-09T17:11:45.269Z,26.50
2018-08-09T17:14:16.242Z,26.40
2018-08-09T17:16:46.819Z,26.30
2018-08-09T17:19:17.029Z,26.30
2018-08-09T17:21:48.566Z,26.20
2018-08-09T17:24:18.210Z,26.20
2018-08-09T17:26:48.275Z,26.10
2018-08-09T17:29:17.920Z,26.10
2018-08-09T17:31:47.698Z,26.00
2018-08-09T17:34:17.508Z,25.90
2018-08-09T17:36:47.522Z,25.90
2018-08-09T17:39:17.289Z,25.90
2018-08-09T17:41:47.340Z,25.90
2018-08-09T17:44:17.392Z,25.80
2018-08-09T17:46:47.667Z,25.80
2018-08-09T17:49:17.415Z,25.70
2018-08-09T17:51:47.499Z,25.70
2018-08-09T17:54:17.175Z,25.70
2018-08-09T17:56:51.276Z,25.60
2018-08-09T17:59:21.289Z,25.60
2018-08-09T18:01:51.138Z,25.60
2018-08-09T18:04:20.902Z,25.50
2018-08-09T18:06:50.706Z,25.50
2018-08-09T18:09:21.594Z,25.40
2018-08-09T18:11:51.912Z,25.30
2018-08-09T18:14:21.598Z,25.30
2018-08-09T18:16:51.486Z,25.20
2018-08-09T18:19:21.251Z,25.00
2018-08-09T18:21:50.937Z,25.00
2018-08-09T18:24:20.674Z,24.90
2018-08-09T18:26:51.228Z,24.80
2018-08-09T18:29:20.984Z,24.70
2018-08-09T18:31:51.154Z,24.60
2018-08-09T18:34:20.951Z,24.50
2018-08-09T18:36:51.293Z,24.50
2018-08-09T18:39:21.046Z,24.40
2018-08-09T18:41:51.083Z,24.30
2018-08-09T18:44:21.146Z,24.20
2018-08-09T18:46:51.021Z,24.00
2018-08-09T18:49:22.045Z,23.90
2018-08-09T18:51:54.705Z,23.80
2018-08-09T18:54:31.108Z,23.70
2018-08-09T18:57:01.038Z,23.60
2018-08-09T18:59:30.872Z,23.50
2018-08-09T19:02:00.967Z,23.40
2018-08-09T19:04:36.114Z,23.40
2018-08-09T19:07:07.066Z,23.40
2018-08-09T19:09:38.004Z,23.30
2018-08-09T19:12:11.046Z,23.30
2018-08-09T19:14:41.180Z,23.20
2018-08-09T19:17:11.502Z,23.20
2018-08-09T19:19:41.166Z,23.20
2018-08-09T19:22:10.790Z,23.10
2018-08-09T19:24:42.974Z,23.10
2018-08-09T19:27:23.916Z,23.10
2018-08-09T19:29:53.745Z,23.20
2018-08-09T19:32:23.856Z,23.10
2018-08-09T19:34:54.397Z,23.10
2018-08-09T19:37:29.394Z,23.10
2018-08-09T19:40:01.258Z,23.00
2018-08-09T19:42:32.779Z,22.90
2018-08-09T19:45:04.515Z,22.80
2018-08-09T19:47:43.708Z,22.80
2018-08-09T19:50:16.167Z,22.80
2018-08-09T19:52:46.198Z,22.80
2018-08-09T19:55:17.588Z,22.70
2018-08-09T19:57:48.274Z,22.70
2018-08-09T20:00:21.376Z,22.70
2018-08-09T20:02:51.890Z,22.70
2018-08-09T20:05:21.937Z,22.70
2018-08-09T20:07:54.179Z,22.70
2018-08-09T20:10:24.234Z,22.70
2018-08-09T20:12:54.269Z,22.70
2018-08-09T20:15:26.857Z,22.60
2018-08-09T20:17:56.650Z,22.60
2018-08-09T20:20:27.427Z,22.60
2018-08-09T20:22:57.445Z,22.60
2018-08-09T20:25:27.299Z,22.50
2018-08-09T20:27:57.034Z,22.40
2018-08-09T20:30:28.691Z,22.40
2018-08-09T20:32:58.782Z,22.30
2018-08-09T20:35:28.439Z,22.30
2018-08-09T20:37:58.183Z,22.30
2018-08-09T20:40:27.856Z,22.30
2018-08-09T20:42:57.917Z,22.30
2018-08-09T20:45:27.628Z,22.30
2018-08-09T20:47:58.457Z,22.40
2018-08-09T20:50:28.797Z,22.40
2018-08-09T20:52:58.431Z,22.30
2018-08-09T20:55:28.864Z,22.40
2018-08-09T20:57:59.134Z,22.40
2018-08-09T21:00:30.488Z,22.30
2018-08-09T21:03:00.899Z,22.40
2018-08-09T21:05:35.160Z,22.40
2018-08-09T21:08:07.360Z,22.40
2018-08-09T21:10:37.075Z,22.30
2018-08-09T21:13:06.822Z,22.40
2018-08-09T21:15:36.981Z,22.40
2018-08-09T21:18:07.019Z,22.50
2018-08-09T21:20:36.709Z,22.40
2018-08-09T21:23:06.756Z,22.40
2018-08-09T21:25:39.290Z,22.40
2018-08-09T21:28:09.673Z,22.40
2018-08-09T21:30:39.511Z,22.30
2018-08-09T21:33:09.243Z,22.30
2018-08-09T21:35:39.287Z,22.20
2018-08-09T21:38:09.460Z,22.20
2018-08-09T21:40:42.261Z,22.10
2018-08-09T21:43:13.403Z,22.10
2018-08-09T21:45:43.109Z,22.00
2018-08-09T21:48:13.096Z,22.00
2018-08-09T21:50:43.087Z,22.00
2018-08-09T21:53:13.107Z,22.00
2018-08-09T21:55:43.186Z,21.90
2018-08-09T21:58:12.881Z,21.90
2018-08-09T22:00:51.775Z,21.90
2018-08-09T22:03:24.134Z,21.90
2018-08-09T22:05:59.467Z,21.90
2018-08-09T22:08:35.454Z,21.80
2018-08-09T22:11:11.851Z,21.80
2018-08-09T22:13:48.699Z,21.80
2018-08-09T22:16:23.838Z,21.80
2018-08-09T22:18:59.134Z,21.80
2018-08-09T22:21:34.075Z,21.90
2018-08-09T22:24:03.810Z,21.80
2018-08-09T22:26:33.862Z,21.80
2018-08-09T22:29:03.555Z,21.80
2018-08-09T22:31:33.271Z,21.80
2018-08-09T22:34:03.288Z,21.80
2018-08-09T22:36:33.291Z,21.70
2018-08-09T22:39:03.023Z,21.70
2018-08-09T22:41:33.104Z,21.70
2018-08-09T22:44:02.798Z,21.70
2018-08-09T22:46:32.828Z,21.60
2018-08-09T22:49:02.566Z,21.60
2018-08-09T22:51:32.545Z,21.60
2018-08-09T22:54:02.242Z,21.60
2018-08-09T22:56:31.985Z,21.60
2018-08-09T22:59:01.696Z,21.60
2018-08-09T23:01:31.383Z,21.60
2018-08-09T23:04:01.059Z,21.60
2018-08-09T23:06:31.326Z,21.60
2018-08-09T23:09:01.019Z,21.50
2018-08-09T23:11:30.669Z,21.50
2018-08-09T23:14:00.683Z,21.50
2018-08-09T23:16:30.324Z,21.40
2018-08-09T23:18:59.995Z,21.40
2018-08-09T23:21:30.035Z,21.50
2018-08-09T23:23:59.790Z,21.50
2018-08-09T23:26:29.458Z,21.40
2018-08-09T23:28:59.170Z,21.50
2018-08-09T23:31:28.806Z,21.50
2018-08-09T23:34:38.690Z,21.50
2018-08-09T23:37:08.350Z,21.60
2018-08-09T23:39:38.025Z,21.50
2018-08-09T23:42:07.743Z,21.50
2018-08-09T23:44:37.734Z,21.50
2018-08-09T23:47:07.393Z,21.50
2018-08-09T23:49:37.063Z,21.50
2018-08-09T23:52:06.798Z,21.50
2018-08-09T23:54:36.454Z,21.50
2018-08-09T23:57:06.813Z,21.50
2018-08-09T23:59:36.486Z,21.50
